createdAt,value
2023-04-02T00:02:00.766Z,10.5
2023-04-02T00:04:31.696Z,10.5
2023-04-02T00:07:01.585Z,10.5
2023-04-02T00:09:32.072Z,10.4
2023-04-02T00:12:02.354Z,10.3
2023-04-02T00:14:33.704Z,10.3
2023-04-02T00:17:04.510Z,10.3
2023-04-02T00:19:35.063Z,10.2
2023-04-02T00:22:06.287Z,10.2
2023-04-02T00:24:36.657Z,10.2
2023-04-02T00:27:06.777Z,10.1
2023-04-02T00:29:37.901Z,10.1
2023-04-02T00:32:08.689Z,10
2023-04-02T00:34:41.120Z,10.1
2023-04-02T00:37:11.212Z,10
2023-04-02T00:39:41.958Z,10
2023-04-02T00:42:16.285Z,10
2023-04-02T00:44:47.124Z,10
2023-04-02T00:47:18.009Z,10
2023-04-02T00:49:48.916Z,10.1
2023-04-02T00:52:18.877Z,10
2023-04-02T00:54:49.372Z,10
2023-04-02T00:57:20.120Z,9.9
2023-04-02T00:59:54.130Z,9.9
2023-04-02T01:02:24.642Z,9.8
2023-04-02T01:04:54.699Z,9.7
2023-04-02T01:07:24.654Z,9.7
2023-04-02T01:09:54.765Z,9.7
2023-04-02T01:12:24.995Z,9.7
2023-04-02T01:14:55.215Z,9.6
2023-04-02T01:17:25.146Z,9.5
2023-04-02T01:19:55.732Z,9.5
2023-04-02T01:22:26.048Z,9.4
2023-04-02T01:24:56.494Z,9.3
2023-04-02T01:27:26.701Z,9.3
2023-04-02T01:29:57.244Z,9.3
2023-04-02T01:32:28.421Z,9.1
2023-04-02T01:34:59.013Z,9.3
2023-04-02T01:37:29.375Z,9.3
2023-04-02T01:39:59.404Z,9.4
2023-04-02T01:42:29.588Z,9.3
2023-04-02T01:44:59.952Z,9.1
2023-04-02T01:47:29.974Z,9.1
2023-04-02T01:50:00.405Z,9.1
2023-04-02T01:52:31.990Z,9.2
2023-04-02T01:55:02.369Z,9.3
2023-04-02T01:57:32.602Z,9.4
2023-04-02T02:00:03.323Z,9.3
2023-04-02T02:02:33.674Z,9.3
2023-04-02T02:05:04.652Z,9.3
2023-04-02T02:07:35.069Z,9.3
2023-04-02T02:10:04.969Z,9.3
2023-04-02T02:12:36.388Z,9.3
2023-04-02T02:15:06.509Z,9.1
2023-04-02T02:17:36.980Z,9
2023-04-02T02:20:07.079Z,9
2023-04-02T02:22:37.398Z,8.9
2023-04-02T02:25:08.018Z,9
2023-04-02T02:27:39.211Z,8.9
2023-04-02T02:30:09.744Z,9
2023-04-02T02:32:40.544Z,8.9
2023-04-02T02:35:10.740Z,8.9
2023-04-02T02:37:41.549Z,8.9
2023-04-02T02:40:11.660Z,8.9
2023-04-02T02:42:42.521Z,8.9
2023-04-02T02:45:16.886Z,8.9
2023-04-02T02:47:48.076Z,8.9
2023-04-02T02:50:16.944Z,8.8
2023-04-02T02:52:47.143Z,8.8
2023-04-02T02:55:17.525Z,8.6
2023-04-02T02:57:48.103Z,8.6
2023-04-02T03:00:18.814Z,8.6
2023-04-02T03:02:51.018Z,8.6
2023-04-02T03:05:26.548Z,8.5
2023-04-02T03:07:56.649Z,8.4
2023-04-02T03:10:26.673Z,8.3
2023-04-02T03:12:56.903Z,8.3
2023-04-02T03:15:27.559Z,8.4
2023-04-02T03:17:58.017Z,8.4
2023-04-02T03:20:28.701Z,8.4
2023-04-02T03:22:59.179Z,8.6
2023-04-02T03:25:29.700Z,8.5
2023-04-02T03:28:01.970Z,8.5
2023-04-02T03:30:32.968Z,8.5
2023-04-02T03:33:03.353Z,8.3
2023-04-02T03:35:34.097Z,8.4
2023-04-02T03:38:04.432Z,8.3
2023-04-02T03:40:34.954Z,8.2
2023-04-02T03:43:07.506Z,8.2
2023-04-02T03:45:38.982Z,8.3
2023-04-02T03:48:09.688Z,8.3
2023-04-02T03:50:39.730Z,8.2
2023-04-02T03:53:10.155Z,8.1
2023-04-02T03:55:40.646Z,8.2
2023-04-02T03:58:11.411Z,8.3
2023-04-02T04:00:47.674Z,8.4
2023-04-02T04:03:18.452Z,8.4
2023-04-02T04:05:50.366Z,8.4
2023-04-02T04:08:21.830Z,8.5
2023-04-02T04:10:52.226Z,8.4
2023-04-02T04:13:22.669Z,8.5
2023-04-02T04:15:53.409Z,8.2
2023-04-02T04:18:25.035Z,8.2
2023-04-02T04:20:55.089Z,8.2
2023-04-02T04:23:25.574Z,8.2
2023-04-02T04:25:56.055Z,8.4
2023-04-02T04:28:26.482Z,8.4
2023-04-02T04:30:57.208Z,8.5
2023-04-02T04:33:27.305Z,8.4
2023-04-02T04:35:58.165Z,8.5
2023-04-02T04:38:28.472Z,8.5
2023-04-02T04:40:58.817Z,8.6
2023-04-02T04:43:31.214Z,8.7
2023-04-02T04:46:01.600Z,8.6
2023-04-02T04:48:34.567Z,8.7
2023-04-02T04:51:03.531Z,8.8
2023-04-02T04:53:36.050Z,8.8
2023-04-02T04:56:18.434Z,8.9
2023-04-02T04:58:39.288Z,8.9
2023-04-02T05:01:09.443Z,9
2023-04-02T05:03:40.194Z,9
2023-04-02T05:06:10.235Z,9
2023-04-02T05:08:40.975Z,9
2023-04-02T05:11:11.756Z,9
2023-04-02T05:13:42.236Z,9.1
2023-04-02T05:16:12.662Z,9.1
2023-04-02T05:18:43.600Z,9.1
2023-04-02T05:21:14.065Z,9.1
2023-04-02T05:23:44.416Z,9.1
2023-04-02T05:26:15.323Z,9.1
2023-04-02T05:28:45.423Z,9.1
2023-04-02T05:31:15.864Z,9
2023-04-02T05:33:46.423Z,9.1
2023-04-02T05:36:16.608Z,9.2
2023-04-02T05:38:47.191Z,9.2
2023-04-02T05:41:17.524Z,9.3
2023-04-02T05:43:47.737Z,9.2
2023-04-02T05:46:18.101Z,9.4
2023-04-02T05:48:49.086Z,9.3
2023-04-02T05:51:19.522Z,9.3
2023-04-02T05:53:50.874Z,9.3
2023-04-02T05:56:21.595Z,9.4
2023-04-02T05:58:51.933Z,9.6
2023-04-02T06:01:21.830Z,9.6
2023-04-02T06:03:52.757Z,9.6
2023-04-02T06:06:22.904Z,9.7
2023-04-02T06:08:54.157Z,9.9
2023-04-02T06:11:25.217Z,10.2
2023-04-02T06:13:55.621Z,10.3
2023-04-02T06:16:26.365Z,10.3
2023-04-02T06:18:59.393Z,10.3
2023-04-02T06:21:29.889Z,10.4
2023-04-02T06:24:00.427Z,10.4
2023-04-02T06:26:32.421Z,10.5
2023-04-02T06:29:02.917Z,10.7
2023-04-02T06:31:33.892Z,10.9
2023-04-02T06:34:03.971Z,11.1
2023-04-02T06:36:34.858Z,11.3
2023-04-02T06:39:05.686Z,11.4
2023-04-02T06:41:35.940Z,11.6
2023-04-02T06:44:08.803Z,11.8
2023-04-02T06:46:40.423Z,11.9
2023-04-02T06:49:11.073Z,12.1
2023-04-02T06:51:41.530Z,12.2
2023-04-02T06:54:11.793Z,12.4
2023-04-02T06:56:44.777Z,12.7
2023-04-02T06:59:15.436Z,12.9
2023-04-02T07:01:46.140Z,13.1
2023-04-02T07:04:17.001Z,13.1
2023-04-02T07:06:48.068Z,13.3
2023-04-02T07:09:23.343Z,13.3
2023-04-02T07:11:53.509Z,13.4
2023-04-02T07:14:24.898Z,13.5
2023-04-02T07:16:55.982Z,13.6
2023-04-02T07:19:26.231Z,13.8
2023-04-02T07:21:56.566Z,13.9
2023-04-02T07:24:27.056Z,13.9
2023-04-02T07:26:57.138Z,14
2023-04-02T07:29:27.995Z,14.1
2023-04-02T07:31:58.544Z,14.3
2023-04-02T07:34:34.860Z,14.5
2023-04-02T07:37:05.144Z,14.6
2023-04-02T07:39:40.214Z,14.5
2023-04-02T07:42:08.708Z,14.6
2023-04-02T07:44:37.650Z,14.8
2023-04-02T07:47:08.060Z,14.9
2023-04-02T07:49:38.390Z,15
2023-04-02T07:52:08.649Z,14.9
2023-04-02T07:54:39.274Z,15
2023-04-02T07:57:10.003Z,15.1
2023-04-02T07:59:40.551Z,15.2
2023-04-02T08:02:10.786Z,15.1
2023-04-02T08:04:41.077Z,15
2023-04-02T08:07:12.139Z,15.2
2023-04-02T08:09:42.730Z,15.2
2023-04-02T08:12:13.081Z,15.2
2023-04-02T08:14:43.758Z,15.4
2023-04-02T08:17:14.469Z,15.6
2023-04-02T08:19:54.545Z,15.8
2023-04-02T08:22:15.852Z,15.8
2023-04-02T08:24:46.168Z,15.9
2023-04-02T08:27:16.358Z,15.9
2023-04-02T08:29:46.554Z,16
2023-04-02T08:32:16.920Z,16.1
2023-04-02T08:34:47.082Z,16.1
2023-04-02T08:37:18.578Z,16.1
2023-04-02T08:39:48.654Z,16.2
2023-04-02T08:42:19.185Z,16.2
2023-04-02T08:44:49.467Z,16.3
2023-04-02T08:47:19.693Z,16.4
2023-04-02T08:49:48.228Z,16.5
2023-04-02T08:52:18.415Z,16.6
2023-04-02T08:54:48.627Z,16.7
2023-04-02T08:57:19.381Z,16.7
2023-04-02T08:59:49.517Z,16.8
2023-04-02T09:02:20.288Z,16.9
2023-04-02T09:04:50.867Z,16.9
2023-04-02T09:07:21.536Z,17
2023-04-02T09:09:52.261Z,17
2023-04-02T09:12:22.619Z,17
2023-04-02T09:14:53.013Z,17
2023-04-02T09:17:22.145Z,17.1
2023-04-02T09:19:52.634Z,16.9
2023-04-02T09:22:23.472Z,17
2023-04-02T09:24:53.903Z,17
2023-04-02T09:27:26.212Z,17.1
2023-04-02T09:29:56.641Z,17.2
2023-04-02T09:32:27.027Z,17.2
2023-04-02T09:34:57.773Z,17.1
2023-04-02T09:37:28.956Z,17.3
2023-04-02T09:39:59.310Z,17.4
2023-04-02T09:42:29.499Z,17.5
2023-04-02T09:45:00.071Z,17.6
2023-04-02T09:47:30.173Z,17.7
2023-04-02T09:50:00.875Z,17.6
2023-04-02T09:52:31.677Z,17.6
2023-04-02T09:55:02.108Z,17.8
2023-04-02T09:57:32.937Z,17.9
2023-04-02T10:00:03.313Z,18
2023-04-02T10:02:33.634Z,18.1
2023-04-02T10:05:04.610Z,18.1
2023-04-02T10:07:32.987Z,18
2023-04-02T10:10:03.054Z,18
2023-04-02T10:12:33.170Z,18.1
2023-04-02T10:15:03.530Z,18.1
2023-04-02T10:17:33.562Z,18.1
2023-04-02T10:20:03.513Z,18.2
2023-04-02T10:22:33.808Z,18.2
2023-04-02T10:25:04.037Z,18.3
2023-04-02T10:27:34.277Z,18.4
2023-04-02T10:30:05.028Z,18.5
2023-04-02T10:32:34.921Z,18.5
2023-04-02T10:35:05.088Z,18.4
2023-04-02T10:37:35.223Z,18.4
2023-04-02T10:40:05.832Z,18.5
2023-04-02T10:42:35.897Z,18.7
2023-04-02T10:45:06.628Z,18.7
2023-04-02T10:47:37.217Z,18.8
2023-04-02T10:50:07.756Z,18.6
2023-04-02T10:52:38.218Z,18.5
2023-04-02T10:55:07.125Z,18.2
2023-04-02T10:57:37.303Z,18.2
2023-04-02T11:00:07.265Z,18.2
2023-04-02T11:02:37.204Z,18.3
2023-04-02T11:05:07.672Z,18.3
2023-04-02T11:07:38.259Z,18.4
2023-04-02T11:10:08.484Z,18.4
2023-04-02T11:12:41.456Z,18.4
2023-04-02T11:15:09.571Z,18.3
2023-04-02T11:17:39.924Z,18.3
2023-04-02T11:20:10.199Z,18.5
2023-04-02T11:22:41.596Z,18.6
2023-04-02T11:25:12.199Z,18.6
2023-04-02T11:27:42.271Z,18.7
2023-04-02T11:30:12.690Z,18.6
2023-04-02T11:32:43.249Z,18.7
2023-04-02T11:35:13.622Z,18.8
2023-04-02T11:37:43.635Z,19
2023-04-02T11:40:14.450Z,19
2023-04-02T11:42:44.559Z,19
2023-04-02T11:45:14.961Z,19
2023-04-02T11:47:45.577Z,19.2
2023-04-02T11:50:15.867Z,19.2
2023-04-02T11:52:46.233Z,19.4
2023-04-02T11:55:16.418Z,19.3
2023-04-02T11:57:47.602Z,19.4
2023-04-02T12:00:18.257Z,19.6
2023-04-02T12:02:48.950Z,19.7
2023-04-02T12:05:19.508Z,19.9
2023-04-02T12:07:49.550Z,19.7
2023-04-02T12:10:20.223Z,19.8
2023-04-02T12:12:50.422Z,19.8
2023-04-02T12:15:20.886Z,19.7
2023-04-02T12:17:51.409Z,19.8
2023-04-02T12:20:21.387Z,19.8
2023-04-02T12:22:51.804Z,19.8
2023-04-02T12:25:22.395Z,19.8
2023-04-02T12:27:52.846Z,20
2023-04-02T12:30:22.178Z,20
2023-04-02T12:32:52.478Z,20
2023-04-02T12:35:22.895Z,19.9
2023-04-02T12:37:53.006Z,19.7
2023-04-02T12:40:23.149Z,19.6
2023-04-02T12:42:53.973Z,19.6
2023-04-02T12:45:24.691Z,19.6
2023-04-02T12:47:55.498Z,19.2
2023-04-02T12:50:26.891Z,19.4
2023-04-02T12:52:56.868Z,19.2
2023-04-02T12:55:26.952Z,18.8
2023-04-02T12:57:57.267Z,18.6
2023-04-02T13:00:27.317Z,18.5
2023-04-02T13:02:57.483Z,18.3
2023-04-02T13:05:27.922Z,18.2
2023-04-02T13:07:58.273Z,18.1
2023-04-02T13:10:28.864Z,18.1
2023-04-02T13:12:58.996Z,17.9
2023-04-02T13:15:30.370Z,17.9
2023-04-02T13:18:01.269Z,17.7
2023-04-02T13:20:31.582Z,17.6
2023-04-02T13:23:03.414Z,17.7
2023-04-02T13:25:33.791Z,17.7
2023-04-02T13:28:02.797Z,17.6
2023-04-02T13:30:33.712Z,17.4
2023-04-02T13:33:04.944Z,17.4
2023-04-02T13:35:35.123Z,17.3
2023-04-02T13:38:03.922Z,17.2
2023-04-02T13:40:34.969Z,17.1
2023-04-02T13:43:05.316Z,17
2023-04-02T13:45:35.690Z,16.9
2023-04-02T13:48:06.353Z,16.9
2023-04-02T13:50:36.693Z,17
2023-04-02T13:53:09.797Z,16.8
2023-04-02T13:55:38.269Z,17
2023-04-02T13:58:12.810Z,17
2023-04-02T14:00:44.173Z,17.2
2023-04-02T14:03:14.098Z,17.3
2023-04-02T14:05:44.722Z,17.2
2023-04-02T14:08:15.125Z,17.3
2023-04-02T14:10:46.307Z,17.3
2023-04-02T14:13:16.386Z,17.2
2023-04-02T14:15:47.684Z,17.3
2023-04-02T14:18:17.904Z,17.1
2023-04-02T14:20:49.192Z,17.2
2023-04-02T14:23:19.071Z,17.1
2023-04-02T14:25:49.823Z,17.1
2023-04-02T14:28:20.423Z,17.1
2023-04-02T14:30:51.212Z,17.2
2023-04-02T14:33:21.583Z,17.2
2023-04-02T14:35:51.792Z,17.2
2023-04-02T14:38:21.863Z,17.3
2023-04-02T14:40:52.043Z,17.3
2023-04-02T14:43:22.423Z,17.2
2023-04-02T14:45:52.776Z,17.1
2023-04-02T14:48:23.162Z,17.2
2023-04-02T14:50:52.979Z,17.1
2023-04-02T14:53:22.217Z,17.1
2023-04-02T14:55:52.567Z,17.2
2023-04-02T14:58:24.329Z,17.2
2023-04-02T15:00:55.362Z,17.2
2023-04-02T15:03:24.656Z,17.2
2023-04-02T15:05:54.884Z,17.1
2023-04-02T15:08:25.107Z,17.1
2023-04-02T15:10:55.429Z,17.1
2023-04-02T15:13:25.786Z,17.1
2023-04-02T15:15:56.084Z,17.1
2023-04-02T15:18:26.557Z,17.1
2023-04-02T15:20:56.989Z,17.1
2023-04-02T15:23:27.561Z,17.1
2023-04-02T15:25:57.318Z,17.2
2023-04-02T15:28:27.829Z,17.1
2023-04-02T15:30:58.474Z,17.1
2023-04-02T15:33:29.094Z,17.1
2023-04-02T15:36:00.327Z,17
2023-04-02T15:38:30.236Z,17
2023-04-02T15:41:00.133Z,17
2023-04-02T15:43:30.507Z,17
2023-04-02T15:46:01.057Z,16.9
2023-04-02T15:48:29.780Z,16.9
2023-04-02T15:50:59.903Z,16.9
2023-04-02T15:53:30.745Z,16.9
2023-04-02T15:56:01.117Z,16.9
2023-04-02T15:58:32.023Z,16.9
2023-04-02T16:01:02.590Z,16.7
2023-04-02T16:03:31.411Z,16.7
2023-04-02T16:06:02.153Z,16.8
2023-04-02T16:08:32.316Z,16.7
2023-04-02T16:11:01.380Z,16.7
2023-04-02T16:13:31.474Z,16.5
2023-04-02T16:16:02.104Z,16.5
2023-04-02T16:18:32.429Z,16.5
2023-04-02T16:21:02.872Z,16.4
2023-04-02T16:23:33.077Z,16.4
2023-04-02T16:26:03.645Z,16.3
2023-04-02T16:28:34.171Z,16.3
2023-04-02T16:31:05.192Z,16.2
2023-04-02T16:33:34.220Z,16.2
2023-04-02T16:36:04.243Z,16
2023-04-02T16:38:32.869Z,16.1
2023-04-02T16:41:08.156Z,15.9
2023-04-02T16:43:33.188Z,16
2023-04-02T16:46:03.380Z,16.1
2023-04-02T16:48:33.809Z,16
2023-04-02T16:51:03.914Z,15.9
2023-04-02T16:53:34.028Z,15.9
2023-04-02T16:56:04.658Z,15.9
2023-04-02T16:58:34.874Z,15.9
2023-04-02T17:01:05.350Z,15.9
2023-04-02T17:03:35.592Z,15.9
2023-04-02T17:06:06.087Z,15.8
2023-04-02T17:08:36.178Z,15.8
2023-04-02T17:11:06.826Z,15.8
2023-04-02T17:13:37.094Z,15.8
2023-04-02T17:16:07.762Z,15.8
2023-04-02T17:18:37.992Z,15.7
2023-04-02T17:21:07.958Z,15.7
2023-04-02T17:23:46.142Z,15.6
2023-04-02T17:26:07.859Z,15.6
2023-04-02T17:28:37.976Z,15.5
2023-04-02T17:31:08.158Z,15.5
2023-04-02T17:33:38.218Z,15.5
2023-04-02T17:36:08.266Z,15.5
2023-04-02T17:38:38.713Z,15.5
2023-04-02T17:41:09.829Z,15.5
2023-04-02T17:43:40.020Z,15.5
2023-04-02T17:46:10.065Z,15.4
2023-04-02T17:48:39.876Z,15.4
2023-04-02T17:51:10.569Z,15.4
2023-04-02T17:53:40.847Z,15.4
2023-04-02T17:56:10.610Z,15.3
2023-04-02T17:58:40.812Z,15.3
2023-04-02T18:01:11.405Z,15.3
2023-04-02T18:03:41.563Z,15.3
2023-04-02T18:06:10.345Z,15.3
2023-04-02T18:08:38.983Z,15.2
2023-04-02T18:11:08.930Z,15.1
2023-04-02T18:13:39.141Z,15.2
2023-04-02T18:16:09.302Z,15.1
2023-04-02T18:18:43.766Z,15.1
2023-04-02T18:21:14.423Z,15.1
2023-04-02T18:23:44.955Z,15
2023-04-02T18:26:13.563Z,14.9
2023-04-02T18:28:43.768Z,15
2023-04-02T18:31:14.158Z,15
2023-04-02T18:33:44.109Z,15
2023-04-02T18:36:14.286Z,15
2023-04-02T18:38:44.404Z,14.9
2023-04-02T18:41:14.408Z,14.9
2023-04-02T18:43:44.476Z,15
2023-04-02T18:46:14.642Z,15
2023-04-02T18:48:45.676Z,15
2023-04-02T18:51:16.453Z,15
2023-04-02T18:53:47.287Z,15
2023-04-02T18:56:17.341Z,15.1
2023-04-02T18:58:47.352Z,15.1
2023-04-02T19:01:17.521Z,15.1
2023-04-02T19:03:48.372Z,15.1
2023-04-02T19:06:19.308Z,15
2023-04-02T19:08:49.891Z,15
2023-04-02T19:11:20.084Z,15
2023-04-02T19:13:49.055Z,14.9
2023-04-02T19:16:19.305Z,14.9
2023-04-02T19:18:50.069Z,14.9
2023-04-02T19:21:20.530Z,14.9
2023-04-02T19:23:50.760Z,14.9
2023-04-02T19:26:21.109Z,14.9
2023-04-02T19:28:51.250Z,14.9
2023-04-02T19:31:22.355Z,14.9
2023-04-02T19:33:53.500Z,14.9
2023-04-02T19:36:23.907Z,14.7
2023-04-02T19:38:54.218Z,14.8
2023-04-02T19:41:24.354Z,14.8
2023-04-02T19:43:54.801Z,14.8
2023-04-02T19:46:24.993Z,14.8
2023-04-02T19:48:55.058Z,14.8
2023-04-02T19:51:25.071Z,14.8
2023-04-02T19:53:55.839Z,14.7
2023-04-02T19:56:26.429Z,14.7
2023-04-02T19:58:58.322Z,14.8
2023-04-02T20:01:27.971Z,14.8
2023-04-02T20:03:56.499Z,14.7
2023-04-02T20:06:26.638Z,14.7
2023-04-02T20:08:56.681Z,14.7
2023-04-02T20:11:26.961Z,14.6
2023-04-02T20:13:55.842Z,14.5
2023-04-02T20:16:25.942Z,14.5
2023-04-02T20:18:56.095Z,14.6
2023-04-02T20:21:26.626Z,14.6
2023-04-02T20:23:57.290Z,14.5
2023-04-02T20:26:27.247Z,14.5
2023-04-02T20:28:57.753Z,14.5
2023-04-02T20:31:27.878Z,14.5
2023-04-02T20:33:58.284Z,14.5
2023-04-02T20:36:28.376Z,14.4
2023-04-02T20:38:58.522Z,14.4
2023-04-02T20:41:28.418Z,14.4
2023-04-02T20:43:56.741Z,14.4
2023-04-02T20:46:26.815Z,14.4
2023-04-02T20:48:57.190Z,14.4
2023-04-02T20:51:27.969Z,14.4
2023-04-02T20:53:58.514Z,14.4
2023-04-02T20:56:29.504Z,14.3
2023-04-02T20:58:59.650Z,14.3
2023-04-02T21:01:30.121Z,14.3
2023-04-02T21:04:00.146Z,14.3
2023-04-02T21:06:30.415Z,14.2
2023-04-02T21:09:01.292Z,14.2
2023-04-02T21:11:32.026Z,14.2
2023-04-02T21:14:00.791Z,14.2
2023-04-02T21:16:30.696Z,14.1
2023-04-02T21:19:00.532Z,14.1
2023-04-02T21:21:31.230Z,14.1
2023-04-02T21:24:01.345Z,14.1
2023-04-02T21:26:33.247Z,14.1
2023-04-02T21:29:02.142Z,14
2023-04-02T21:31:32.117Z,14.1
2023-04-02T21:34:02.043Z,14.1
2023-04-02T21:36:32.633Z,14
2023-04-02T21:39:03.224Z,14
2023-04-02T21:41:33.582Z,14
2023-04-02T21:44:03.908Z,14
2023-04-02T21:46:34.520Z,14
2023-04-02T21:49:06.209Z,14
2023-04-02T21:51:36.469Z,14
2023-04-02T21:54:06.784Z,14
2023-04-02T21:56:37.355Z,14
2023-04-02T21:59:09.014Z,14
2023-04-02T22:01:39.574Z,14
2023-04-02T22:04:10.326Z,14
2023-04-02T22:06:40.741Z,14
2023-04-02T22:09:11.435Z,14.1
2023-04-02T22:11:42.227Z,14.1
2023-04-02T22:14:12.486Z,14.1
2023-04-02T22:16:44.033Z,13.9
2023-04-02T22:19:14.723Z,14
2023-04-02T22:21:45.547Z,14
2023-04-02T22:24:16.179Z,14.1
2023-04-02T22:26:46.689Z,14.1
2023-04-02T22:29:17.265Z,14.1
2023-04-02T22:31:48.226Z,14.1
2023-04-02T22:34:18.430Z,14
2023-04-02T22:36:51.893Z,13.9
2023-04-02T22:39:22.360Z,14
2023-04-02T22:41:52.884Z,13.9
2023-04-02T22:44:23.590Z,13.9
2023-04-02T22:46:54.131Z,13.8
2023-04-02T22:49:24.591Z,13.8
2023-04-02T22:51:54.970Z,13.8
2023-04-02T22:54:25.513Z,13.8
2023-04-02T22:56:56.086Z,13.8
2023-04-02T22:59:25.063Z,13.7
2023-04-02T23:01:55.846Z,13.7
2023-04-02T23:04:25.972Z,13.7
2023-04-02T23:06:57.203Z,13.7
2023-04-02T23:09:27.616Z,13.5
2023-04-02T23:11:58.454Z,13.5
2023-04-02T23:14:29.034Z,13.5
2023-04-02T23:16:59.850Z,13.5
2023-04-02T23:19:29.056Z,13.5
2023-04-02T23:21:59.766Z,13.5
2023-04-02T23:24:28.912Z,13.6
2023-04-02T23:26:59.670Z,13.6
2023-04-02T23:29:29.899Z,13.5
2023-04-02T23:32:00.288Z,13.5
2023-04-02T23:34:30.618Z,13.5
2023-04-02T23:37:01.573Z,13.5
2023-04-02T23:39:31.849Z,13.5
2023-04-02T23:42:02.669Z,13.5
2023-04-02T23:44:32.798Z,13.4
2023-04-02T23:47:03.450Z,13.4
2023-04-02T23:49:32.889Z,13.4
2023-04-02T23:52:03.014Z,13.5
2023-04-02T23:54:33.852Z,13.6
2023-04-02T23:57:04.315Z,13.5
2023-04-02T23:59:34.590Z,13.5
